Willsboro, New York
Current Conditions -  °F | °C
As of 11:11 PM on Wednesday 17 Dec 2014 (Local Time) from KBTV Reporting Station
Light Fog Light Fog  
Wind Chill: 35°   Ceiling: 5000
Heat Index: 35°   Visibility: 4mi
Dew Point: 33°   Wind: 0mph
Humidity: 92%   Direction: NA
Pressure: 29.76"   Gusts: NA
Location:  44.36°N, 73.39°W
Report Text: KBTV 180411Z 00000KT 4SM R15/1800VP6000FT BCFG BR FEW020 OVC050 02/01 A2976 RMK AO2 T00170006
Loading
Personal Weather Stations






























Interactive Weather Map New forecast layout! Learn more

10-Day Weather Forecast

Advertisements
Track Severe Weather on mobile